Terminal Aerodrome Forecast
Issued by NWS North Platte, NE

Home | Current Version | Previous Version | Text Only | Print | Product List | Glossary On
Versions: 1 2 3 4 5 6 7 8 9 10 11 12 13 14 15 16 17 18
643
FTUS43 KLBF 212320
TAFLBF
TAF
KLBF 212320Z 2200/2224 09008KT P6SM OVC030
     FM220400 10004KT P6SM BKN040
     FM220700 VRB03KT 6SM BR BKN020
     FM221000 00000KT 2SM BR BKN010
      TEMPO 2210/2214 1SM BR BKN008
     FM221400 VRB03KT P6SM BKN040
     FM221900 15007KT P6SM SCT070=

USA.gov is the U.S. government's official web portal to all federal, state and local government web resources and services.